Robertson, Iowa
Current Conditions -  °F | °C
As of 3:55 PM on Saturday 25 Oct 2014 (Local Time) from KIFA Reporting Station
Clear Clear  
Wind Chill: 67°   Ceiling: Unl
Heat Index: 67°   Visibility: 10mi
Dew Point: 33°   Wind: 6mph
Humidity: 28%   Direction: 320°NW
Pressure: 30.08"   Gusts: NA
Location:  42.5577°N, 93.0852°W
Report Text: KIFA 252055Z AUTO 32005KT 10SM CLR 20/01 A3008 RMK AO2 T01970007
Loading
Personal Weather Stations






























Interactive Weather Map
Tropical Storm Tracking
New forecast layout! Learn more

10-Day Weather Forecast

Advertisements
Track Severe Weather on mobile